Time;durP1;ratioP1;P1;durP2;ratioP2;P2;SDS_P1;SDS_P2;PMS_P1;PMS_P2;Temp;Humidity;BMP_temperature;BMP_pressure;BME280_temperature;BME280_humidity;BME280_pressure;Samples;Min_cycle;Max_cycle;Signal;HPM_P1;HPM_P2
2022/03/24 00:00:32;;;;;;;22.43;17.80;;;;;;;;;;5029622;28;20453;-78
2022/03/24 00:02:59;;;;;;;20.17;18.03;;;;;;;;;;5013731;28;20454;-79
2022/03/24 00:05:26;;;;;;;28.23;19.77;;;;;;;;;;5030269;28;20493;-79
2022/03/24 00:07:55;;;;;;;24.50;17.63;;;;;;;;;;5030112;28;20955;-78
2022/03/24 00:10:23;;;;;;;25.30;19.30;;;;;;;;;;5029961;28;20457;-79
2022/03/24 00:12:51;;;;;;;20.47;18.37;;;;;;;;;;5029541;28;20574;-78
2022/03/24 00:15:19;;;;;;;25.10;19.50;;;;;;;;;;5030330;28;20438;-80
2022/03/24 00:17:46;;;;;;;23.87;18.93;;;;;;;;;;5029897;28;20537;-79
2022/03/24 00:20:14;;;;;;;23.13;19.17;;;;;;;;;;5029713;28;20964;-78
2022/03/24 00:22:41;;;;;;;21.40;18.60;;;;;;;;;;5030000;28;20516;-79
2022/03/24 00:25:11;;;;;;;25.13;19.77;;;;;;;;;;5030817;28;20457;-79
2022/03/24 00:27:39;;;;;;;23.27;19.60;;;;;;;;;;5030178;28;20464;-78
2022/03/24 00:30:08;;;;;;;22.00;19.30;;;;;;;;;;5030081;28;20942;-79
2022/03/24 00:32:35;;;;;;;24.07;17.93;;;;;;;;;;5029421;28;20481;-79
2022/03/24 00:35:02;;;;;;;23.10;19.73;;;;;;;;;;5029815;28;20454;-79
2022/03/24 00:37:29;;;;;;;22.77;19.07;;;;;;;;;;5029929;28;20455;-78
2022/03/24 00:39:56;;;;;;;21.17;17.57;;;;;;;;;;5030046;28;20454;-79
2022/03/24 00:42:25;;;;;;;23.93;19.23;;;;;;;;;;5029875;28;20451;-79
2022/03/24 00:44:52;;;;;;;21.10;18.63;;;;;;;;;;5029629;28;20964;-79
2022/03/24 00:47:19;;;;;;;28.67;19.07;;;;;;;;;;5029959;28;20687;-78
2022/03/24 00:49:47;;;;;;;23.73;19.13;;;;;;;;;;5029884;28;20820;-79
2022/03/24 00:52:14;;;;;;;20.30;18.00;;;;;;;;;;5029692;28;20431;-79
2022/03/24 00:54:41;;;;;;;22.20;19.20;;;;;;;;;;5029664;28;20528;-78
2022/03/24 00:57:08;;;;;;;19.90;17.77;;;;;;;;;;5029863;28;20451;-79
2022/03/24 00:59:36;;;;;;;21.80;19.00;;;;;;;;;;5029655;28;20970;-79
2022/03/24 01:02:06;;;;;;;21.20;19.00;;;;;;;;;;5032726;28;20443;-78
2022/03/24 01:04:33;;;;;;;20.40;17.40;;;;;;;;;;5033104;28;20450;-78
2022/03/24 01:07:01;;;;;;;24.27;18.60;;;;;;;;;;5033296;28;20453;-79
2022/03/24 01:09:28;;;;;;;22.87;18.30;;;;;;;;;;5033598;28;20520;-79
2022/03/24 01:11:56;;;;;;;21.90;18.60;;;;;;;;;;5033568;28;20447;-79
2022/03/24 01:14:25;;;;;;;23.43;18.77;;;;;;;;;;5032925;28;20639;-79
2022/03/24 01:16:53;;;;;;;23.27;18.70;;;;;;;;;;5032899;28;20510;-78
2022/03/24 01:19:20;;;;;;;24.00;19.67;;;;;;;;;;5033475;28;20446;-78
2022/03/24 01:21:47;;;;;;;25.57;19.93;;;;;;;;;;5032676;28;20500;-78
2022/03/24 01:24:14;;;;;;;20.97;18.67;;;;;;;;;;5032280;28;20865;-78
2022/03/24 01:26:42;;;;;;;21.73;19.10;;;;;;;;;;5032735;28;20545;-78
2022/03/24 01:29:11;;;;;;;22.07;19.40;;;;;;;;;;5032621;28;20450;-78
2022/03/24 01:31:42;;;;;;;27.03;20.07;;;;;;;;;;5032574;28;20820;-78
2022/03/24 01:34:11;;;;;;;29.13;20.90;;;;;;;;;;5032218;28;20497;-77
2022/03/24 01:36:39;;;;;;;27.10;20.20;;;;;;;;;;5033862;28;20507;-79
2022/03/24 01:39:06;;;;;;;22.33;19.53;;;;;;;;;;5036133;28;20465;-79
2022/03/24 01:41:34;;;;;;;21.93;18.70;;;;;;;;;;5035971;28;20450;-78
2022/03/24 01:44:01;;;;;;;22.23;19.13;;;;;;;;;;5032545;28;20570;-79
2022/03/24 01:46:28;;;;;;;23.07;19.70;;;;;;;;;;5033679;28;20446;-78
2022/03/24 01:48:55;;;;;;;26.63;19.40;;;;;;;;;;5035235;28;20460;-78
2022/03/24 01:51:24;;;;;;;22.30;18.67;;;;;;;;;;5036098;28;20443;-79
2022/03/24 01:53:53;;;;;;;23.37;18.43;;;;;;;;;;5034786;28;20486;-77
2022/03/24 01:56:20;;;;;;;27.53;21.00;;;;;;;;;;5036836;28;20490;-78
2022/03/24 01:58:48;;;;;;;23.03;19.60;;;;;;;;;;5038799;28;20496;-79
2022/03/24 02:01:26;;;;;;;28.30;21.37;;;;;;;;;;5036202;28;20482;-78
2022/03/24 02:03:54;;;;;;;25.03;19.53;;;;;;;;;;5035160;28;20496;-78
2022/03/24 02:06:24;;;;;;;21.93;19.53;;;;;;;;;;5032166;28;20450;-78
2022/03/24 02:08:51;;;;;;;25.47;19.90;;;;;;;;;;5032122;28;20476;-78
2022/03/24 02:11:19;;;;;;;23.27;19.67;;;;;;;;;;5032045;28;20453;-79
2022/03/24 02:13:46;;;;;;;24.93;20.87;;;;;;;;;;5031020;28;20517;-78
2022/03/24 02:16:13;;;;;;;22.93;20.20;;;;;;;;;;5032178;28;20898;-78
2022/03/24 02:18:40;;;;;;;26.53;19.60;;;;;;;;;;5032144;28;20454;-79
2022/03/24 02:21:12;;;;;;;24.53;20.10;;;;;;;;;;5031827;28;20465;-78
2022/03/24 02:23:40;;;;;;;25.40;20.93;;;;;;;;;;5031634;28;20453;-78
2022/03/24 02:26:09;;;;;;;23.60;20.00;;;;;;;;;;5032176;28;20449;-78
2022/03/24 02:28:36;;;;;;;25.53;20.80;;;;;;;;;;5031710;28;20444;-79
2022/03/24 02:31:04;;;;;;;22.67;19.60;;;;;;;;;;5031767;28;20446;-78
2022/03/24 02:33:31;;;;;;;24.03;21.47;;;;;;;;;;5030781;28;20573;-79
2022/03/24 02:36:00;;;;;;;26.03;20.53;;;;;;;;;;5031407;28;20457;-78
2022/03/24 02:38:27;;;;;;;28.33;22.13;;;;;;;;;;5031444;28;20548;-79
2022/03/24 02:40:56;;;;;;;25.67;19.13;;;;;;;;;;5031452;28;20445;-78
2022/03/24 02:43:23;;;;;;;31.43;19.93;;;;;;;;;;5030970;28;20469;-79
2022/03/24 02:45:53;;;;;;;23.00;19.63;;;;;;;;;;5031109;28;20454;-78
2022/03/24 02:48:20;;;;;;;25.17;19.20;;;;;;;;;;5030875;28;20871;-78
2022/03/24 02:50:48;;;;;;;25.40;20.70;;;;;;;;;;5031264;28;20449;-79
2022/03/24 02:53:15;;;;;;;23.90;21.00;;;;;;;;;;5030945;28;20520;-77
2022/03/24 02:55:42;;;;;;;26.23;21.13;;;;;;;;;;5031007;28;20460;-78
2022/03/24 02:58:10;;;;;;;23.67;20.43;;;;;;;;;;5031188;28;20791;-79
2022/03/24 03:00:38;;;;;;;23.10;19.43;;;;;;;;;;5031003;28;20454;-78
2022/03/24 03:03:06;;;;;;;24.57;19.23;;;;;;;;;;5030208;28;20474;-78
2022/03/24 03:05:34;;;;;;;21.27;18.97;;;;;;;;;;5030392;28;20481;-78
2022/03/24 03:08:01;;;;;;;22.57;20.17;;;;;;;;;;5030228;28;20462;-77
2022/03/24 03:10:28;;;;;;;22.50;20.00;;;;;;;;;;5030733;28;20441;-78
2022/03/24 03:12:55;;;;;;;21.77;19.47;;;;;;;;;;5030463;28;20478;-79
2022/03/24 03:15:23;;;;;;;24.77;20.07;;;;;;;;;;5031115;28;20477;-77
2022/03/24 03:17:50;;;;;;;27.53;21.10;;;;;;;;;;5043619;28;20454;-78
2022/03/24 03:20:17;;;;;;;23.00;20.00;;;;;;;;;;5044692;28;20485;-79
2022/03/24 03:22:44;;;;;;;25.03;19.97;;;;;;;;;;5036225;28;20461;-78
2022/03/24 03:25:12;;;;;;;25.97;20.33;;;;;;;;;;5036867;28;20463;-77
2022/03/24 03:27:39;;;;;;;23.73;19.70;;;;;;;;;;5042161;28;20452;-77
2022/03/24 03:30:06;;;;;;;24.70;19.13;;;;;;;;;;5040907;28;20814;-78
2022/03/24 03:32:34;;;;;;;24.07;19.80;;;;;;;;;;5035270;28;20474;-77
2022/03/24 03:35:02;;;;;;;24.40;21.00;;;;;;;;;;5030755;28;20519;-78
2022/03/24 03:37:29;;;;;;;22.90;20.50;;;;;;;;;;5030764;28;20447;-78
2022/03/24 03:39:56;;;;;;;22.23;19.03;;;;;;;;;;5030689;28;20452;-78
2022/03/24 03:42:24;;;;;;;25.33;20.27;;;;;;;;;;5030671;28;20511;-78
2022/03/24 03:44:52;;;;;;;21.63;19.10;;;;;;;;;;5030265;28;20488;-78
2022/03/24 03:47:19;;;;;;;24.40;20.23;;;;;;;;;;5030134;28;20856;-78
2022/03/24 03:49:47;;;;;;;26.33;21.20;;;;;;;;;;5029975;28;20453;-78
2022/03/24 03:52:15;;;;;;;24.23;19.93;;;;;;;;;;5030020;28;20444;-78
2022/03/24 03:54:43;;;;;;;23.63;20.43;;;;;;;;;;5029557;28;21013;-76
2022/03/24 03:57:10;;;;;;;22.63;20.10;;;;;;;;;;5029665;28;20866;-78
2022/03/24 03:59:38;;;;;;;29.53;20.53;;;;;;;;;;5029480;28;20821;-78
2022/03/24 04:02:05;;;;;;;24.60;20.30;;;;;;;;;;5030098;28;20480;-78
2022/03/24 04:04:32;;;;;;;22.23;19.87;;;;;;;;;;5029632;28;20469;-78
2022/03/24 04:07:01;;;;;;;22.30;19.37;;;;;;;;;;5029818;28;20503;-78
2022/03/24 04:09:27;;;;;;;25.30;20.57;;;;;;;;;;5029937;28;20857;-78
2022/03/24 04:11:55;;;;;;;24.20;20.63;;;;;;;;;;5029538;28;20480;-78
2022/03/24 04:14:23;;;;;;;24.50;20.83;;;;;;;;;;5029288;28;20577;-78
2022/03/24 04:16:51;;;;;;;23.37;20.30;;;;;;;;;;5029948;28;20806;-77
2022/03/24 04:19:19;;;;;;;23.50;20.67;;;;;;;;;;5029454;28;21007;-78
2022/03/24 04:21:46;;;;;;;23.90;20.10;;;;;;;;;;5030043;28;20441;-77
2022/03/24 04:24:15;;;;;;;26.57;22.40;;;;;;;;;;5029667;28;20461;-78
2022/03/24 04:26:42;;;;;;;21.80;19.50;;;;;;;;;;5029573;28;20832;-78
2022/03/24 04:29:09;;;;;;;22.73;20.33;;;;;;;;;;5029891;28;20458;-78
2022/03/24 04:31:36;;;;;;;25.20;21.57;;;;;;;;;;5029618;28;20952;-77
2022/03/24 04:34:03;;;;;;;22.63;20.23;;;;;;;;;;5029447;28;20520;-78
2022/03/24 04:36:30;;;;;;;26.73;20.87;;;;;;;;;;5032047;28;20433;-79
2022/03/24 04:38:57;;;;;;;25.93;20.80;;;;;;;;;;5036589;28;20454;-78
2022/03/24 04:41:25;;;;;;;22.73;19.30;;;;;;;;;;5035512;28;20445;-79
2022/03/24 04:43:52;;;;;;;25.80;20.30;;;;;;;;;;5035073;28;20472;-78
2022/03/24 04:46:19;;;;;;;23.07;19.10;;;;;;;;;;5036008;28;20434;-78
2022/03/24 04:48:48;;;;;;;24.57;21.13;;;;;;;;;;5035086;28;20439;-79
2022/03/24 04:51:16;;;;;;;22.83;19.63;;;;;;;;;;5033736;28;20455;-78
2022/03/24 04:53:44;;;;;;;21.07;18.73;;;;;;;;;;5032634;28;20473;-78
2022/03/24 04:56:11;;;;;;;24.50;20.40;;;;;;;;;;5033453;28;20453;-77
2022/03/24 04:58:39;;;;;;;24.37;20.57;;;;;;;;;;5034140;28;20438;-77
2022/03/24 05:01:06;;;;;;;27.23;22.00;;;;;;;;;;5042892;28;20453;-79
2022/03/24 05:03:33;;;;;;;25.80;20.43;;;;;;;;;;5043387;28;20454;-79
2022/03/24 05:06:00;;;;;;;25.63;20.23;;;;;;;;;;5039713;28;20439;-78
2022/03/24 05:08:27;;;;;;;21.93;18.97;;;;;;;;;;5053437;28;20444;-79
2022/03/24 05:10:54;;;;;;;21.63;19.20;;;;;;;;;;5048283;28;20424;-78
2022/03/24 05:13:21;;;;;;;25.90;20.27;;;;;;;;;;5057643;28;20458;-79
2022/03/24 05:15:50;;;;;;;23.30;19.90;;;;;;;;;;5057575;28;20468;-78
2022/03/24 05:18:17;;;;;;;22.93;20.20;;;;;;;;;;5057421;28;20473;-78
2022/03/24 05:20:44;;;;;;;25.67;20.30;;;;;;;;;;5057636;28;20536;-79
2022/03/24 05:23:12;;;;;;;23.33;18.57;;;;;;;;;;5049627;28;20834;-77
2022/03/24 05:25:40;;;;;;;28.93;23.13;;;;;;;;;;5034878;28;20477;-77
2022/03/24 05:28:07;;;;;;;23.80;21.13;;;;;;;;;;5034631;28;20537;-78
2022/03/24 05:30:34;;;;;;;29.40;20.80;;;;;;;;;;5034820;28;20549;-79
2022/03/24 05:33:03;;;;;;;28.63;21.37;;;;;;;;;;5033126;28;20484;-77
2022/03/24 05:35:35;;;;;;;25.23;19.57;;;;;;;;;;5034154;28;20568;-79
2022/03/24 05:38:02;;;;;;;24.37;19.13;;;;;;;;;;5034107;28;20482;-78
2022/03/24 05:40:29;;;;;;;24.00;20.47;;;;;;;;;;5033197;28;20452;-80
2022/03/24 05:42:56;;;;;;;25.67;20.50;;;;;;;;;;5030075;28;20473;-79
2022/03/24 05:45:23;;;;;;;26.73;22.23;;;;;;;;;;5032615;28;20436;-79
2022/03/24 05:47:50;;;;;;;24.10;19.13;;;;;;;;;;5031178;28;20447;-79
2022/03/24 05:50:18;;;;;;;26.60;20.83;;;;;;;;;;5034017;28;20447;-79
2022/03/24 05:52:49;;;;;;;23.43;19.77;;;;;;;;;;5033921;28;20537;-78
2022/03/24 05:55:17;;;;;;;33.63;25.40;;;;;;;;;;5032411;28;20488;-79
2022/03/24 05:57:44;;;;;;;23.53;21.10;;;;;;;;;;5032741;28;20528;-79
2022/03/24 06:00:12;;;;;;;23.47;20.77;;;;;;;;;;5032089;28;20450;-78
2022/03/24 06:02:39;;;;;;;23.47;20.93;;;;;;;;;;5031947;28;20523;-78
2022/03/24 06:05:09;;;;;;;29.43;20.60;;;;;;;;;;5032027;28;21029;-78
2022/03/24 06:07:38;;;;;;;30.13;21.77;;;;;;;;;;5031889;28;20459;-78
2022/03/24 06:10:05;;;;;;;27.80;21.40;;;;;;;;;;5032236;28;20504;-78
2022/03/24 06:12:32;;;;;;;23.97;20.17;;;;;;;;;;5031556;28;20454;-78
2022/03/24 06:14:59;;;;;;;28.27;22.10;;;;;;;;;;5031686;28;20486;-79
2022/03/24 06:17:26;;;;;;;29.00;21.57;;;;;;;;;;5031797;28;20463;-79
2022/03/24 06:19:54;;;;;;;25.23;21.00;;;;;;;;;;5031544;28;20458;-78
2022/03/24 06:22:21;;;;;;;29.67;20.70;;;;;;;;;;5031704;28;20535;-79
2022/03/24 06:24:49;;;;;;;30.27;21.13;;;;;;;;;;5031084;28;20444;-78
2022/03/24 06:27:17;;;;;;;29.03;21.10;;;;;;;;;;5031662;28;20448;-79
2022/03/24 06:29:44;;;;;;;28.67;21.43;;;;;;;;;;5031520;28;20461;-79
2022/03/24 06:32:11;;;;;;;29.63;22.70;;;;;;;;;;5035682;28;20457;-78
2022/03/24 06:34:38;;;;;;;30.33;20.70;;;;;;;;;;5037580;28;20490;-78
2022/03/24 06:37:06;;;;;;;25.40;21.90;;;;;;;;;;5037113;28;20450;-80
2022/03/24 06:39:33;;;;;;;31.10;21.27;;;;;;;;;;5036676;28;20463;-77
2022/03/24 06:42:02;;;;;;;27.80;21.83;;;;;;;;;;5033839;28;20468;-79
2022/03/24 06:44:29;;;;;;;25.57;21.40;;;;;;;;;;5031801;28;20491;-80
2022/03/24 06:46:57;;;;;;;26.60;21.83;;;;;;;;;;5032705;28;20450;-79
2022/03/24 06:49:24;;;;;;;29.47;20.80;;;;;;;;;;5031758;28;20476;-77
2022/03/24 06:51:52;;;;;;;29.57;21.60;;;;;;;;;;5031343;28;20500;-78
2022/03/24 06:54:19;;;;;;;27.83;21.10;;;;;;;;;;5030898;28;20563;-79
2022/03/24 06:56:46;;;;;;;30.57;22.30;;;;;;;;;;5030898;28;20540;-79
2022/03/24 06:59:14;;;;;;;24.70;21.03;;;;;;;;;;5030821;28;20445;-78
2022/03/24 07:01:42;;;;;;;27.90;22.57;;;;;;;;;;5030534;28;20456;-79
2022/03/24 07:04:09;;;;;;;29.20;22.40;;;;;;;;;;5030109;28;20476;-79
2022/03/24 07:06:37;;;;;;;27.53;22.63;;;;;;;;;;5030777;28;20965;-78
2022/03/24 07:09:04;;;;;;;28.77;22.00;;;;;;;;;;5030340;28;20892;-79
2022/03/24 07:11:32;;;;;;;31.47;22.30;;;;;;;;;;5030536;28;20453;-78
2022/03/24 07:13:59;;;;;;;28.37;22.60;;;;;;;;;;5030563;28;20466;-79
2022/03/24 07:16:27;;;;;;;29.67;22.13;;;;;;;;;;5030622;28;20485;-79
2022/03/24 07:18:55;;;;;;;26.50;22.47;;;;;;;;;;5030453;28;20516;-79
2022/03/24 07:21:22;;;;;;;28.50;22.50;;;;;;;;;;5030375;28;20465;-79
2022/03/24 07:23:49;;;;;;;27.30;22.60;;;;;;;;;;5029852;28;20878;-80
2022/03/24 07:26:16;;;;;;;29.93;23.80;;;;;;;;;;5026713;28;20450;-79
2022/03/24 07:28:43;;;;;;;28.40;21.67;;;;;;;;;;5030452;28;20446;-77
2022/03/24 07:31:11;;;;;;;24.70;21.47;;;;;;;;;;5030664;28;20482;-79
2022/03/24 07:33:39;;;;;;;27.90;22.37;;;;;;;;;;5033410;28;20481;-79
2022/03/24 07:36:07;;;;;;;29.13;22.30;;;;;;;;;;5034564;28;20498;-79
2022/03/24 07:38:34;;;;;;;25.77;22.63;;;;;;;;;;5030249;28;20554;-79
2022/03/24 07:41:01;;;;;;;28.73;22.83;;;;;;;;;;5030307;28;20549;-78
2022/03/24 07:43:28;;;;;;;31.60;24.47;;;;;;;;;;5030465;28;20475;-79
2022/03/24 07:45:55;;;;;;;26.43;22.73;;;;;;;;;;5032259;28;20446;-79
2022/03/24 07:48:25;;;;;;;33.53;23.50;;;;;;;;;;5031239;28;20926;-79
2022/03/24 07:50:54;;;;;;;29.20;21.73;;;;;;;;;;5030575;28;20870;-78
2022/03/24 07:53:25;;;;;;;32.07;22.80;;;;;;;;;;5030821;28;20466;-79
2022/03/24 07:55:52;;;;;;;31.47;23.00;;;;;;;;;;5030024;28;20516;-79
2022/03/24 07:58:21;;;;;;;31.53;23.03;;;;;;;;;;5030094;28;20914;-78
2022/03/24 08:00:48;;;;;;;27.30;23.10;;;;;;;;;;5031426;28;20682;-78
2022/03/24 08:03:16;;;;;;;27.13;22.67;;;;;;;;;;5026056;28;20478;-78
2022/03/24 08:05:43;;;;;;;28.97;23.50;;;;;;;;;;5029034;28;20779;-78
2022/03/24 08:08:12;;;;;;;29.60;22.47;;;;;;;;;;5031127;28;20530;-78
2022/03/24 08:10:40;;;;;;;27.73;23.20;;;;;;;;;;5034523;28;20457;-78
2022/03/24 08:13:08;;;;;;;32.37;24.17;;;;;;;;;;5037880;28;20549;-80
2022/03/24 08:15:36;;;;;;;29.13;24.43;;;;;;;;;;5039197;28;20916;-79
2022/03/24 08:18:04;;;;;;;27.97;24.33;;;;;;;;;;5035002;28;20513;-79
2022/03/24 08:20:31;;;;;;;33.03;22.83;;;;;;;;;;5038268;28;20457;-79
2022/03/24 08:22:58;;;;;;;31.50;23.03;;;;;;;;;;5031491;28;20474;-81
2022/03/24 08:25:26;;;;;;;26.97;24.00;;;;;;;;;;5035459;28;20922;-79
2022/03/24 08:27:53;;;;;;;24.67;22.07;;;;;;;;;;5039823;28;20469;-79
2022/03/24 08:30:20;;;;;;;31.13;24.47;;;;;;;;;;5038714;28;20458;-79
2022/03/24 08:32:47;;;;;;;27.10;24.10;;;;;;;;;;5037689;28;20551;-80
2022/03/24 08:35:14;;;;;;;27.20;24.30;;;;;;;;;;5038076;28;20482;-80
2022/03/24 08:37:42;;;;;;;26.53;23.77;;;;;;;;;;5037949;28;20457;-79
2022/03/24 08:40:10;;;;;;;30.67;23.27;;;;;;;;;;5038501;28;20469;-80
2022/03/24 08:42:38;;;;;;;27.07;23.30;;;;;;;;;;5037981;28;20512;-80
2022/03/24 08:45:06;;;;;;;25.57;22.57;;;;;;;;;;5037977;28;20434;-79
2022/03/24 08:47:34;;;;;;;26.57;23.60;;;;;;;;;;5038811;28;20445;-79
2022/03/24 08:50:01;;;;;;;33.13;23.57;;;;;;;;;;5038540;28;20923;-79
2022/03/24 08:52:28;;;;;;;31.43;23.87;;;;;;;;;;5038317;28;20485;-80
2022/03/24 08:54:55;;;;;;;27.53;23.50;;;;;;;;;;5038083;28;20847;-78
2022/03/24 08:57:26;;;;;;;27.47;23.40;;;;;;;;;;5037787;28;20478;-80
2022/03/24 08:59:54;;;;;;;31.20;24.40;;;;;;;;;;5038198;28;20799;-80
2022/03/24 09:02:21;;;;;;;30.53;24.17;;;;;;;;;;5038249;28;20481;-79
2022/03/24 09:04:49;;;;;;;28.00;24.10;;;;;;;;;;5037537;28;20945;-81
2022/03/24 09:07:16;;;;;;;29.70;24.77;;;;;;;;;;5037718;28;20435;-80
2022/03/24 09:09:43;;;;;;;28.37;25.37;;;;;;;;;;5038296;28;20439;-80
2022/03/24 09:12:10;;;;;;;32.10;25.50;;;;;;;;;;5037787;28;20931;-81
2022/03/24 09:14:37;;;;;;;31.00;24.90;;;;;;;;;;5037795;28;20913;-80
2022/03/24 09:17:06;;;;;;;28.63;23.97;;;;;;;;;;5038116;28;20486;-80
2022/03/24 09:19:33;;;;;;;29.90;24.60;;;;;;;;;;5038332;28;20445;-80
2022/03/24 09:22:00;;;;;;;30.57;25.07;;;;;;;;;;5039372;28;20539;-81
2022/03/24 09:24:27;;;;;;;28.97;25.17;;;;;;;;;;5037674;28;20842;-80
2022/03/24 09:26:55;;;;;;;29.33;25.07;;;;;;;;;;5038261;28;20461;-80
2022/03/24 09:29:22;;;;;;;31.27;26.27;;;;;;;;;;5038064;28;20469;-80
2022/03/24 09:31:49;;;;;;;29.93;25.97;;;;;;;;;;5037031;28;20533;-80
2022/03/24 09:34:18;;;;;;;34.13;25.57;;;;;;;;;;5036443;28;20528;-80
2022/03/24 09:36:45;;;;;;;28.23;25.20;;;;;;;;;;5023809;28;20483;-80
2022/03/24 09:39:14;;;;;;;30.97;27.83;;;;;;;;;;5035781;28;20922;-80
2022/03/24 09:41:43;;;;;;;30.17;26.97;;;;;;;;;;5018736;28;20911;-80
2022/03/24 09:44:10;;;;;;;32.57;26.33;;;;;;;;;;5035970;28;20557;-80
2022/03/24 09:46:38;;;;;;;34.67;28.03;;;;;;;;;;5036296;28;20435;-80
2022/03/24 09:49:05;;;;;;;30.57;27.40;;;;;;;;;;5036306;28;20454;-80
2022/03/24 09:51:33;;;;;;;33.30;27.20;;;;;;;;;;5037745;28;20504;-78
2022/03/24 09:54:03;;;;;;;33.83;26.90;;;;;;;;;;5038334;28;21028;-79
2022/03/24 09:56:33;;;;;;;31.40;27.70;;;;;;;;;;5034211;28;20478;-80
2022/03/24 09:59:02;;;;;;;30.67;26.97;;;;;;;;;;5040520;28;20463;-79
2022/03/24 10:01:31;;;;;;;29.03;26.00;;;;;;;;;;5045629;28;20458;-79
2022/03/24 10:04:05;;;;;;;31.17;26.80;;;;;;;;;;5025136;28;20467;-79
2022/03/24 10:06:34;;;;;;;29.77;26.33;;;;;;;;;;5035162;28;20441;-77
2022/03/24 10:09:01;;;;;;;31.00;27.70;;;;;;;;;;5036474;28;20453;-78
2022/03/24 10:11:28;;;;;;;28.27;25.37;;;;;;;;;;5035452;28;20438;-80
2022/03/24 10:13:57;;;;;;;29.07;25.97;;;;;;;;;;5036425;28;20470;-79
2022/03/24 10:16:41;;;;;;;31.50;26.63;;;;;;;;;;5035117;28;20484;-78
2022/03/24 10:19:09;;;;;;;33.67;28.07;;;;;;;;;;5034132;28;20968;-77
2022/03/24 10:21:39;;;;;;;29.60;26.50;;;;;;;;;;5034716;28;20450;-78
2022/03/24 10:24:10;;;;;;;29.97;26.80;;;;;;;;;;5034399;28;20859;-78
2022/03/24 10:26:41;;;;;;;30.20;25.73;;;;;;;;;;5035419;28;20443;-79
2022/03/24 10:29:08;;;;;;;31.77;26.60;;;;;;;;;;5032801;28;20482;-79
2022/03/24 10:31:36;;;;;;;28.93;25.70;;;;;;;;;;5037497;28;20770;-79
2022/03/24 10:34:03;;;;;;;32.50;27.67;;;;;;;;;;5033910;28;20478;-80
2022/03/24 10:36:31;;;;;;;30.07;26.87;;;;;;;;;;5036149;28;20490;-78
2022/03/24 10:39:04;;;;;;;30.40;25.77;;;;;;;;;;5034336;28;20839;-80
2022/03/24 10:41:32;;;;;;;29.30;26.10;;;;;;;;;;5035659;28;20458;-80
2022/03/24 10:43:59;;;;;;;28.67;25.53;;;;;;;;;;5035407;28;20981;-79
2022/03/24 10:46:27;;;;;;;30.87;26.30;;;;;;;;;;5035998;28;20557;-78
2022/03/24 10:48:55;;;;;;;30.47;27.37;;;;;;;;;;5034269;28;20446;-79
2022/03/24 10:51:22;;;;;;;28.00;25.17;;;;;;;;;;5033258;28;20438;-78
2022/03/24 10:53:55;;;;;;;30.77;25.20;;;;;;;;;;5033537;28;21037;-81
2022/03/24 10:56:29;;;;;;;28.40;23.97;;;;;;;;;;5033988;28;20482;-80
2022/03/24 10:58:58;;;;;;;26.80;23.83;;;;;;;;;;5037704;28;20450;-79
2022/03/24 11:01:29;;;;;;;27.37;24.67;;;;;;;;;;5036431;28;20815;-79
2022/03/24 11:04:02;;;;;;;26.17;23.70;;;;;;;;;;5034908;28;20550;-79
2022/03/24 11:06:31;;;;;;;26.87;24.00;;;;;;;;;;5034247;28;20438;-80
2022/03/24 11:08:59;;;;;;;27.50;24.17;;;;;;;;;;5035209;28;20610;-79
2022/03/24 11:11:33;;;;;;;26.40;23.83;;;;;;;;;;5033988;28;20533;-78
2022/03/24 11:14:02;;;;;;;27.40;24.70;;;;;;;;;;5035713;28;20481;-78
2022/03/24 11:16:31;;;;;;;28.30;25.40;;;;;;;;;;5037077;28;20470;-78
2022/03/24 11:18:58;;;;;;;29.80;25.97;;;;;;;;;;5033364;28;20438;-78
2022/03/24 11:21:29;;;;;;;26.20;23.57;;;;;;;;;;5043153;28;20450;-79
2022/03/24 11:23:57;;;;;;;28.13;25.30;;;;;;;;;;5042498;28;20823;-79
2022/03/24 11:26:24;;;;;;;25.97;23.30;;;;;;;;;;5032925;28;20493;-80
2022/03/24 11:28:54;;;;;;;27.00;24.20;;;;;;;;;;5032772;28;20461;-79
2022/03/24 11:31:23;;;;;;;27.83;23.50;;;;;;;;;;5033194;28;20588;-79
2022/03/24 11:33:51;;;;;;;25.40;22.97;;;;;;;;;;5032891;28;20482;-79
2022/03/24 11:36:19;;;;;;;24.17;21.67;;;;;;;;;;5032859;28;20827;-78
2022/03/24 11:38:47;;;;;;;22.23;20.07;;;;;;;;;;5033560;28;20443;-78
2022/03/24 11:41:18;;;;;;;24.83;20.57;;;;;;;;;;5032707;28;20863;-79
2022/03/24 11:43:49;;;;;;;21.40;19.40;;;;;;;;;;5029640;28;20482;-81
2022/03/24 11:46:21;;;;;;;19.97;18.17;;;;;;;;;;5031019;28;20447;-79
2022/03/24 11:48:48;;;;;;;21.13;19.13;;;;;;;;;;5031857;28;20442;-79
2022/03/24 11:51:20;;;;;;;22.60;20.43;;;;;;;;;;5033212;28;20450;-79
2022/03/24 11:54:00;;;;;;;22.60;20.40;;;;;;;;;;5036038;28;20541;-79
2022/03/24 11:56:27;;;;;;;23.47;20.90;;;;;;;;;;5041565;28;20474;-79
2022/03/24 11:59:23;;;;;;;23.00;20.70;;;;;;;;;;5041230;28;20490;-80
2022/03/24 12:02:10;;;;;;;18.30;16.80;;;;;;;;;;5034794;28;20504;-79
2022/03/24 12:04:45;;;;;;;16.33;14.93;;;;;;;;;;5040704;28;20474;-78
2022/03/24 12:07:16;;;;;;;16.73;15.33;;;;;;;;;;5039957;28;20434;-79
2022/03/24 12:09:54;;;;;;;20.87;18.87;;;;;;;;;;5038228;28;20489;-79
2022/03/24 12:12:21;;;;;;;21.00;19.00;;;;;;;;;;5032155;28;20504;-79
2022/03/24 12:14:53;;;;;;;20.47;18.57;;;;;;;;;;5033076;28;20439;-80
2022/03/24 12:17:22;;;;;;;19.70;17.80;;;;;;;;;;5032437;28;20532;-79
2022/03/24 12:19:51;;;;;;;19.33;17.63;;;;;;;;;;5032455;28;21048;-78
2022/03/24 12:22:35;;;;;;;19.40;17.60;;;;;;;;;;5032523;28;20446;-79
2022/03/24 12:25:36;;;;;;;18.93;16.97;;;;;;;;;;5031879;28;20941;-78
2022/03/24 12:28:10;;;;;;;20.43;18.63;;;;;;;;;;5032806;28;20484;-78
2022/03/24 12:30:58;;;;;;;19.87;18.03;;;;;;;;;;5032907;28;20438;-79
2022/03/24 12:33:35;;;;;;;21.60;19.50;;;;;;;;;;5031746;28;20862;-77
2022/03/24 12:36:05;;;;;;;20.00;18.10;;;;;;;;;;5031892;28;20461;-78
2022/03/24 12:38:43;;;;;;;20.43;18.43;;;;;;;;;;5031872;28;20482;-78
2022/03/24 12:41:17;;;;;;;18.10;16.50;;;;;;;;;;5032155;28;20450;-78
2022/03/24 12:43:46;;;;;;;20.63;18.67;;;;;;;;;;5031691;28;20471;-78
2022/03/24 12:46:20;;;;;;;18.13;16.33;;;;;;;;;;5031727;28;20454;-79
2022/03/24 12:48:47;;;;;;;18.90;17.17;;;;;;;;;;5031478;28;20958;-78
2022/03/24 12:51:18;;;;;;;20.27;18.37;;;;;;;;;;5031938;28;20473;-80
2022/03/24 12:53:52;;;;;;;18.77;17.00;;;;;;;;;;5031367;28;20535;-78
2022/03/24 12:56:24;;;;;;;19.93;18.23;;;;;;;;;;5033693;28;20445;-79
2022/03/24 12:58:55;;;;;;;19.30;17.80;;;;;;;;;;5036068;28;20497;-80
2022/03/24 13:01:22;;;;;;;19.57;17.50;;;;;;;;;;5035448;28;20783;-80
2022/03/24 13:03:57;;;;;;;18.23;16.53;;;;;;;;;;5035651;28;20467;-80
2022/03/24 13:06:25;;;;;;;18.30;16.70;;;;;;;;;;5036449;28;20472;-80
2022/03/24 13:09:13;;;;;;;17.90;16.30;;;;;;;;;;5036222;28;20454;-80
2022/03/24 13:11:50;;;;;;;17.97;16.27;;;;;;;;;;5035949;28;20474;-79
2022/03/24 13:14:19;;;;;;;17.03;15.53;;;;;;;;;;5035829;28;20834;-79
2022/03/24 13:16:58;;;;;;;17.87;16.17;;;;;;;;;;5037382;28;20488;-81
2022/03/24 13:19:26;;;;;;;17.17;15.50;;;;;;;;;;5039918;28;20468;-80
2022/03/24 13:21:54;;;;;;;17.17;15.67;;;;;;;;;;5040700;28;20434;-80
2022/03/24 13:24:21;;;;;;;19.50;17.67;;;;;;;;;;5038744;28;20838;-79
2022/03/24 13:26:57;;;;;;;18.43;16.83;;;;;;;;;;5037650;28;20525;-80
2022/03/24 13:29:35;;;;;;;18.30;16.53;;;;;;;;;;5035203;28;20953;-78
2022/03/24 13:32:09;;;;;;;16.97;15.30;;;;;;;;;;5034745;28;20457;-79
2022/03/24 13:34:36;;;;;;;18.27;16.73;;;;;;;;;;5034609;28;20933;-78
2022/03/24 13:37:12;;;;;;;17.30;15.70;;;;;;;;;;5034883;28;20474;-77
2022/03/24 13:39:40;;;;;;;17.27;15.57;;;;;;;;;;5034851;28;20446;-79
2022/03/24 13:42:10;;;;;;;20.13;16.60;;;;;;;;;;5034774;28;20450;-78
2022/03/24 13:44:37;;;;;;;17.77;16.17;;;;;;;;;;5034828;28;20466;-79
2022/03/24 13:47:05;;;;;;;17.87;16.40;;;;;;;;;;5034142;28;20446;-79
2022/03/24 13:49:33;;;;;;;17.50;15.80;;;;;;;;;;5035132;28;20454;-79
2022/03/24 13:52:00;;;;;;;17.20;15.43;;;;;;;;;;5034956;28;20443;-78
2022/03/24 13:54:28;;;;;;;17.80;16.30;;;;;;;;;;5034379;28;20467;-79
2022/03/24 13:56:56;;;;;;;17.90;16.40;;;;;;;;;;5035688;28;20556;-79
2022/03/24 13:59:27;;;;;;;18.37;16.57;;;;;;;;;;5034355;28;20450;-79
2022/03/24 14:01:57;;;;;;;18.03;16.33;;;;;;;;;;5034857;28;20466;-78
2022/03/24 14:04:24;;;;;;;17.93;16.23;;;;;;;;;;5034939;28;20545;-79
2022/03/24 14:07:05;;;;;;;18.37;16.67;;;;;;;;;;5036984;28;20446;-78
2022/03/24 14:09:33;;;;;;;21.07;18.93;;;;;;;;;;5035185;28;20439;-80
2022/03/24 14:12:04;;;;;;;17.90;16.30;;;;;;;;;;5035064;28;20439;-79
2022/03/24 14:14:31;;;;;;;17.00;15.60;;;;;;;;;;5035417;28;20532;-78
2022/03/24 14:16:58;;;;;;;17.37;15.97;;;;;;;;;;5037301;28;20454;-79
2022/03/24 14:19:26;;;;;;;17.50;15.90;;;;;;;;;;5035547;28;20454;-78
2022/03/24 14:21:55;;;;;;;17.80;16.23;;;;;;;;;;5037173;28;20457;-79
2022/03/24 14:24:37;;;;;;;20.10;18.07;;;;;;;;;;5037759;28;20467;-79